Norwich, Kansas
Current Conditions -  °F | °C
As of 1:53 AM on Saturday 20 Dec 2014 (Local Time) from KICT Reporting Station
Broken Clouds Broken Clouds  
Wind Chill: 30°   Ceiling: 2000
Heat Index: 36°   Visibility: 7mi
Dew Point: 33°   Wind: 8mph
Humidity: 89%   Direction: 180°S
Pressure: 30.16"   Gusts: NA
Location:  37.46°N, 97.85°W
Report Text: KICT 200753Z 18007KT 7SM BKN020 02/01 A3016 RMK AO2 SLP221 T00220006
Loading
Personal Weather Stations






























Interactive Weather Map New forecast layout! Learn more

10-Day Weather Forecast

Advertisements
Track Severe Weather on mobile